»·PEaware :: SKW486 KLAX-KFAT

SKW486 :: KLAX-KFAT

FLIGHT INFORMATION

Flight Status: Arrived
Operator:
SkyWest Airlines
More flights by this operator :: More flights under this callsign
Pilot: Matthew W. (35059)
Aircraft: CANADAIR CL-600 CRJ-700
(CRJ7)
More flights by this aircraft type
Origin: KLAX Los Angeles Intl
United States
Destination: KFAT Fresno Yosemite Intl
United States
More flights between these airports :: More routes between these airports
Route: LADYJ4 CSTRO TTE ALTTA9
File this flight plan on PilotEdge
Remarks:
Altitude:
(Current/Filed)
32,000ft
Speed:
(Current/Filed)
300kts
Departed: 07-Aug-21 06:28 PM
Arrived: 07-Aug-21 07:06 PM
Distance/Time
Traveled:
182nm/0:38
Distance/Time
To Go:
Arrived

Flight Plot

Page will automatically refresh every two minutes.

Flight plan parsing failed; only flown route is shown


Map Options




Map Legend


Flown Route
Filed Route
Departure Airport
Arrival Airport
Navaid (VOR, NDB)
Fix

Horizontal Profiles

Position Reports

Time Latitude Longitude Heading Altitude Ground
Speed
07-Aug-21 18:04 33.941314 -118.397721 83 123ft 0kts
07-Aug-21 18:05 33.941314 -118.397721 83 123ft 0kts
07-Aug-21 18:06 33.941314 -118.397721 83 123ft 0kts
07-Aug-21 18:07 33.941314 -118.397721 83 123ft 0kts
07-Aug-21 18:08 33.941314 -118.397721 83 123ft 0kts
07-Aug-21 18:09 33.941314 -118.397721 83 123ft 0kts
07-Aug-21 18:10 33.941314 -118.397721 83 123ft 0kts
07-Aug-21 18:11 33.941314 -118.397721 83 123ft 0kts
07-Aug-21 18:12 33.941314 -118.397721 83 123ft 0kts
07-Aug-21 18:13 33.941314 -118.397721 83 123ft 0kts
07-Aug-21 18:14 33.941314 -118.397721 83 123ft 0kts
07-Aug-21 18:15 33.941314 -118.397721 83 123ft 0kts
07-Aug-21 18:16 33.941314 -118.397721 83 123ft 0kts
07-Aug-21 18:17 33.941314 -118.397721 83 123ft 0kts
07-Aug-21 18:18 33.941312 -118.397732 83 123ft 1kts
07-Aug-21 18:19 33.941332 -118.398207 122 123ft 1kts
07-Aug-21 18:20 33.941493 -118.398355 163 123ft 0kts
07-Aug-21 18:21 33.939831 -118.398128 173 123ft 14kts
07-Aug-21 18:22 33.939433 -118.393548 83 123ft 19kts
07-Aug-21 18:23 33.940117 -118.386586 84 123ft 22kts
07-Aug-21 18:24 33.940728 -118.380350 106 123ft 0kts
07-Aug-21 18:25 33.940728 -118.380350 106 123ft 0kts
07-Aug-21 18:26 33.939800 -118.380897 262 123ft 12kts
07-Aug-21 18:27 33.935935 -118.424398 263 785ft 200kts
07-Aug-21 18:28 33.928502 -118.491999 262 2602ft 205kts
07-Aug-21 18:29 33.921802 -118.569696 263 4687ft 246kts
07-Aug-21 18:30 33.940684 -118.644440 324 5584ft 269kts
07-Aug-21 18:31 34.013237 -118.677984 359 7130ft 313kts
07-Aug-21 18:32 34.099864 -118.667846 8 8155ft 275kts
07-Aug-21 18:33 34.176662 -118.649153 10 9225ft 300kts
07-Aug-21 18:34 34.257433 -118.633864 350 10689ft 290kts
07-Aug-21 18:35 34.335451 -118.653326 346 12174ft 282kts
07-Aug-21 18:36 34.425945 -118.674454 349 13846ft 398kts
07-Aug-21 18:37 34.538404 -118.696709 350 17284ft 422kts
07-Aug-21 18:38 34.657031 -118.719659 350 19658ft 439kts
07-Aug-21 18:39 34.773719 -118.765490 328 21675ft 452kts
07-Aug-21 18:40 34.882909 -118.844921 330 23879ft 465kts
07-Aug-21 18:41 34.997878 -118.923076 329 26216ft 480kts
07-Aug-21 18:42 35.115571 -119.004801 329 27912ft 491kts
07-Aug-21 18:43 35.234957 -119.087597 329 28964ft 488kts
07-Aug-21 18:44 35.350737 -119.168309 329 31297ft 469kts
07-Aug-21 18:45 35.476509 -119.197020 2 32329ft 481kts
07-Aug-21 18:46 35.607373 -119.167314 23 32977ft 486kts
07-Aug-21 18:47 35.729107 -119.105465 18 31764ft 458kts
07-Aug-21 18:48 35.856281 -119.048216 14 29828ft 483kts
07-Aug-21 18:49 35.976845 -119.069842 341 25527ft 418kts
07-Aug-21 18:50 36.082711 -119.109179 338 21833ft 384kts
07-Aug-21 18:51 36.179999 -119.154813 337 18433ft 364kts
07-Aug-21 18:52 36.272372 -119.198359 339 15145ft 348kts
07-Aug-21 18:53 36.360750 -119.239949 340 12324ft 320kts
07-Aug-21 18:54 36.440875 -119.273498 339 9388ft 290kts
07-Aug-21 18:55 36.515407 -119.310662 324 5789ft 273kts
07-Aug-21 18:57 36.565012 -119.364940 334 5112ft 243kts
07-Aug-21 18:58 36.607512 -119.421800 308 4681ft 207kts
07-Aug-21 18:59 36.638920 -119.475462 302 3978ft 181kts
07-Aug-21 19:00 36.668186 -119.528734 305 3103ft 187kts
07-Aug-21 19:01 36.697685 -119.577984 304 2023ft 161kts
07-Aug-21 19:02 36.720197 -119.619522 304 1122ft 139kts
07-Aug-21 19:03 36.740751 -119.654835 305 1009ft 105kts
07-Aug-21 19:04 36.757498 -119.684020 306 592ft 99kts
07-Aug-21 19:05 36.773425 -119.711371 307 337ft 72kts
07-Aug-21 19:06 36.776568 -119.719485 276 333ft 0kts

Navigation Log

Ident Type
Flight plan parsing failed, navigation log unavailable